Hovedside
METAR-TAF:

METAR-TAF

Lufthavner :

Kajana, Finland

Kajana lufthavn

breddegrad: 64-17N, lengdegrad: 027-41E, høyde over havet: 143 m

Gjeldene værobservasjon

Denne rapporten ble laget for 22 minutter siden, klokken 19:50 UTC
Vind 1 kt fra Sør
Temperatur 6°C
Luftfuktighet 93%
Trykk 1001 hPa
Sikt: 2500 m
Overskyet i en høyde av 300 ft
lett duskregn, dis

METAR: EFKI 281950Z 18001KT 2500 -DZ BR OVC003 06/05 Q1001

Tid: 23:12 (20:12 UTC)

Varsel

Denne rapporten ble laget for 2 timer og 37 minutter siden, klokken 17:35 UTC
Varsel gyldig fra 28. klokken 18 UTC til 28. klokken 21 UTC
Vind 6 kt fra Sør
Sikt: 5000 m
Brutte skyer i en høyde av 400 ft
lett duskregn
Midlertidig
fra 28. klokken 18 UTC til 28. klokken 21 UTC
Sikt: 1500 m
dis

TAF: EFKI 281735Z 2818/2821 17006KT 5000 -DZ BKN004 TEMPO 2818/2821 1500 BR

Værobservasjoner og værvarsel for over 4000 flyplasser (METAR- og TAF-rapporter).

Tilgjengelige stasjoner er representert av de røde og gule prikkene på kartet.

Hold musepekeren over prikken for å se navnet på stasjonen.

Klikk så for å se værobservasjoner og -varsler.

For å forandre kartet kan du klikke på den grønne knappen med svart kryss for å zoome inn, på den grønne knappen med strek for å zoome ut, eller på de grønne pilene for å se tilstøtende kart.


METAR-TAF: